sensor_id;sensor_type;location;lat;lon;timestamp;temperature;humidity
29803;DHT22;16702;50.898;4.662;2022-08-01T00:00:15;23.00;99.90
29803;DHT22;16702;50.898;4.662;2022-08-01T00:02:48;23.00;99.90
29803;DHT22;16702;50.898;4.662;2022-08-01T00:05:19;23.00;99.90
29803;DHT22;16702;50.898;4.662;2022-08-01T00:07:49;23.00;99.90
29803;DHT22;16702;50.898;4.662;2022-08-01T00:10:20;23.10;99.90
29803;DHT22;16702;50.898;4.662;2022-08-01T00:12:50;23.00;99.90
29803;DHT22;16702;50.898;4.662;2022-08-01T00:15:21;23.00;99.90
29803;DHT22;16702;50.898;4.662;2022-08-01T00:17:54;23.00;99.90
29803;DHT22;16702;50.898;4.662;2022-08-01T00:20:24;23.10;99.90
29803;DHT22;16702;50.898;4.662;2022-08-01T00:22:56;23.10;99.90
29803;DHT22;16702;50.898;4.662;2022-08-01T00:25:28;23.00;99.90
29803;DHT22;16702;50.898;4.662;2022-08-01T00:28:00;23.00;99.90
29803;DHT22;16702;50.898;4.662;2022-08-01T00:30:31;23.00;99.90
29803;DHT22;16702;50.898;4.662;2022-08-01T00:33:04;22.90;99.90
29803;DHT22;16702;50.898;4.662;2022-08-01T00:35:35;23.00;99.90
29803;DHT22;16702;50.898;4.662;2022-08-01T00:38:05;22.90;99.90
29803;DHT22;16702;50.898;4.662;2022-08-01T00:40:35;23.00;99.90
29803;DHT22;16702;50.898;4.662;2022-08-01T00:43:06;23.00;99.90
29803;DHT22;16702;50.898;4.662;2022-08-01T00:45:36;23.00;99.90
29803;DHT22;16702;50.898;4.662;2022-08-01T00:48:09;23.00;99.90
29803;DHT22;16702;50.898;4.662;2022-08-01T00:50:40;22.90;99.90
29803;DHT22;16702;50.898;4.662;2022-08-01T00:53:11;22.90;99.90
29803;DHT22;16702;50.898;4.662;2022-08-01T00:55:46;22.90;99.90
29803;DHT22;16702;50.898;4.662;2022-08-01T00:58:17;22.80;99.90
29803;DHT22;16702;50.898;4.662;2022-08-01T01:00:50;22.80;99.90
29803;DHT22;16702;50.898;4.662;2022-08-01T01:03:24;22.90;99.90
29803;DHT22;16702;50.898;4.662;2022-08-01T01:06:26;22.80;99.90
29803;DHT22;16702;50.898;4.662;2022-08-01T01:09:15;22.90;99.90
29803;DHT22;16702;50.898;4.662;2022-08-01T01:11:47;22.90;99.90
29803;DHT22;16702;50.898;4.662;2022-08-01T01:14:26;22.90;99.90
29803;DHT22;16702;50.898;4.662;2022-08-01T01:16:57;22.90;99.90
29803;DHT22;16702;50.898;4.662;2022-08-01T01:19:34;22.90;99.90
29803;DHT22;16702;50.898;4.662;2022-08-01T01:22:25;22.80;99.90
29803;DHT22;16702;50.898;4.662;2022-08-01T01:25:10;22.90;99.90
29803;DHT22;16702;50.898;4.662;2022-08-01T01:27:54;22.90;99.90
29803;DHT22;16702;50.898;4.662;2022-08-01T01:30:33;22.80;99.90
29803;DHT22;16702;50.898;4.662;2022-08-01T01:33:06;22.80;99.90
29803;DHT22;16702;50.898;4.662;2022-08-01T01:35:42;22.80;99.90
29803;DHT22;16702;50.898;4.662;2022-08-01T01:38:17;22.80;99.90
29803;DHT22;16702;50.898;4.662;2022-08-01T01:40:51;22.80;99.90
29803;DHT22;16702;50.898;4.662;2022-08-01T01:43:23;22.90;99.90
29803;DHT22;16702;50.898;4.662;2022-08-01T01:46:02;22.70;99.90
29803;DHT22;16702;50.898;4.662;2022-08-01T01:48:36;22.70;99.90
29803;DHT22;16702;50.898;4.662;2022-08-01T01:51:08;22.80;99.90
29803;DHT22;16702;50.898;4.662;2022-08-01T01:53:40;22.80;99.90
29803;DHT22;16702;50.898;4.662;2022-08-01T01:56:11;22.80;99.90
29803;DHT22;16702;50.898;4.662;2022-08-01T01:58:44;22.80;99.90
29803;DHT22;16702;50.898;4.662;2022-08-01T02:01:18;22.80;99.90
29803;DHT22;16702;50.898;4.662;2022-08-01T02:04:10;22.80;99.90
29803;DHT22;16702;50.898;4.662;2022-08-01T02:06:42;22.90;99.90
29803;DHT22;16702;50.898;4.662;2022-08-01T02:09:16;22.80;99.90
29803;DHT22;16702;50.898;4.662;2022-08-01T02:11:49;22.80;99.90
29803;DHT22;16702;50.898;4.662;2022-08-01T02:14:37;22.70;99.90
29803;DHT22;16702;50.898;4.662;2022-08-01T02:17:11;22.70;99.90
29803;DHT22;16702;50.898;4.662;2022-08-01T02:19:42;22.80;99.90
29803;DHT22;16702;50.898;4.662;2022-08-01T02:22:18;22.80;99.90
29803;DHT22;16702;50.898;4.662;2022-08-01T02:24:56;22.70;99.90
29803;DHT22;16702;50.898;4.662;2022-08-01T02:27:34;22.70;99.90
29803;DHT22;16702;50.898;4.662;2022-08-01T02:30:08;22.70;99.90
29803;DHT22;16702;50.898;4.662;2022-08-01T02:32:44;22.60;99.90
29803;DHT22;16702;50.898;4.662;2022-08-01T02:35:20;22.60;99.90
29803;DHT22;16702;50.898;4.662;2022-08-01T02:37:54;22.70;99.90
29803;DHT22;16702;50.898;4.662;2022-08-01T02:40:28;22.60;99.90
29803;DHT22;16702;50.898;4.662;2022-08-01T02:43:02;22.70;99.90
29803;DHT22;16702;50.898;4.662;2022-08-01T02:45:37;22.60;99.90
29803;DHT22;16702;50.898;4.662;2022-08-01T02:48:15;22.70;99.90
29803;DHT22;16702;50.898;4.662;2022-08-01T02:50:49;22.70;99.90
29803;DHT22;16702;50.898;4.662;2022-08-01T02:53:23;22.50;99.90
29803;DHT22;16702;50.898;4.662;2022-08-01T02:56:11;22.60;99.90
29803;DHT22;16702;50.898;4.662;2022-08-01T02:58:43;22.60;99.90
29803;DHT22;16702;50.898;4.662;2022-08-01T03:01:17;22.70;99.90
29803;DHT22;16702;50.898;4.662;2022-08-01T03:03:50;22.70;99.90
29803;DHT22;16702;50.898;4.662;2022-08-01T03:06:21;22.60;99.90
29803;DHT22;16702;50.898;4.662;2022-08-01T03:08:52;22.60;99.90
29803;DHT22;16702;50.898;4.662;2022-08-01T03:11:27;22.70;99.90
29803;DHT22;16702;50.898;4.662;2022-08-01T03:13:59;22.60;99.90
29803;DHT22;16702;50.898;4.662;2022-08-01T03:16:33;22.50;99.90
29803;DHT22;16702;50.898;4.662;2022-08-01T03:19:09;22.50;99.90
29803;DHT22;16702;50.898;4.662;2022-08-01T03:21:43;22.60;99.90
29803;DHT22;16702;50.898;4.662;2022-08-01T03:24:14;22.50;99.90
29803;DHT22;16702;50.898;4.662;2022-08-01T03:26:47;22.40;99.90
29803;DHT22;16702;50.898;4.662;2022-08-01T03:29:24;22.50;99.90
29803;DHT22;16702;50.898;4.662;2022-08-01T03:31:56;22.40;99.90
29803;DHT22;16702;50.898;4.662;2022-08-01T03:34:30;22.30;99.90
29803;DHT22;16702;50.898;4.662;2022-08-01T03:37:05;22.40;99.90
29803;DHT22;16702;50.898;4.662;2022-08-01T03:39:42;22.30;99.90
29803;DHT22;16702;50.898;4.662;2022-08-01T03:42:18;22.20;99.90
29803;DHT22;16702;50.898;4.662;2022-08-01T03:44:56;22.30;99.90
29803;DHT22;16702;50.898;4.662;2022-08-01T03:47:31;22.30;99.90
29803;DHT22;16702;50.898;4.662;2022-08-01T03:50:14;22.30;99.90
29803;DHT22;16702;50.898;4.662;2022-08-01T03:52:46;22.30;99.90
29803;DHT22;16702;50.898;4.662;2022-08-01T03:55:19;22.30;99.90
29803;DHT22;16702;50.898;4.662;2022-08-01T03:57:51;22.40;99.90
29803;DHT22;16702;50.898;4.662;2022-08-01T04:00:23;22.30;99.90
29803;DHT22;16702;50.898;4.662;2022-08-01T04:02:54;22.30;99.90
29803;DHT22;16702;50.898;4.662;2022-08-01T04:05:27;22.30;99.90
29803;DHT22;16702;50.898;4.662;2022-08-01T04:07:58;22.30;99.90
29803;DHT22;16702;50.898;4.662;2022-08-01T04:10:30;22.20;99.90
29803;DHT22;16702;50.898;4.662;2022-08-01T04:13:00;22.20;99.90
29803;DHT22;16702;50.898;4.662;2022-08-01T04:15:30;22.20;99.90
29803;DHT22;16702;50.898;4.662;2022-08-01T04:18:01;22.30;99.90
29803;DHT22;16702;50.898;4.662;2022-08-01T04:20:34;22.20;99.90
29803;DHT22;16702;50.898;4.662;2022-08-01T04:23:04;22.20;99.90
29803;DHT22;16702;50.898;4.662;2022-08-01T04:25:36;22.10;99.90
29803;DHT22;16702;50.898;4.662;2022-08-01T04:28:10;22.00;99.90
29803;DHT22;16702;50.898;4.662;2022-08-01T04:30:44;22.00;99.90
29803;DHT22;16702;50.898;4.662;2022-08-01T04:33:17;22.00;99.90
29803;DHT22;16702;50.898;4.662;2022-08-01T04:35:52;22.10;99.90
29803;DHT22;16702;50.898;4.662;2022-08-01T04:38:33;22.10;99.90
29803;DHT22;16702;50.898;4.662;2022-08-01T04:41:05;22.10;99.90
29803;DHT22;16702;50.898;4.662;2022-08-01T04:43:36;22.10;99.90
29803;DHT22;16702;50.898;4.662;2022-08-01T04:46:10;22.00;99.90
29803;DHT22;16702;50.898;4.662;2022-08-01T04:48:41;22.00;99.90
29803;DHT22;16702;50.898;4.662;2022-08-01T04:51:15;22.10;99.90
29803;DHT22;16702;50.898;4.662;2022-08-01T04:53:49;22.10;99.90
29803;DHT22;16702;50.898;4.662;2022-08-01T04:56:21;22.00;99.90
29803;DHT22;16702;50.898;4.662;2022-08-01T04:58:51;22.00;99.90
29803;DHT22;16702;50.898;4.662;2022-08-01T05:01:48;22.00;99.90
29803;DHT22;16702;50.898;4.662;2022-08-01T05:04:19;22.00;99.90
29803;DHT22;16702;50.898;4.662;2022-08-01T05:06:53;22.10;99.90
29803;DHT22;16702;50.898;4.662;2022-08-01T05:09:23;22.00;99.90
29803;DHT22;16702;50.898;4.662;2022-08-01T05:11:57;22.00;99.90
29803;DHT22;16702;50.898;4.662;2022-08-01T05:14:29;22.00;99.90
29803;DHT22;16702;50.898;4.662;2022-08-01T05:17:02;22.00;99.90
29803;DHT22;16702;50.898;4.662;2022-08-01T05:19:34;22.00;99.90
29803;DHT22;16702;50.898;4.662;2022-08-01T05:22:10;22.00;99.90
29803;DHT22;16702;50.898;4.662;2022-08-01T05:24:40;22.00;99.90
29803;DHT22;16702;50.898;4.662;2022-08-01T05:27:11;21.80;99.90
29803;DHT22;16702;50.898;4.662;2022-08-01T05:29:42;21.80;99.90
29803;DHT22;16702;50.898;4.662;2022-08-01T05:32:13;21.80;99.90
29803;DHT22;16702;50.898;4.662;2022-08-01T05:34:43;21.80;99.90
29803;DHT22;16702;50.898;4.662;2022-08-01T05:37:16;21.80;99.90
29803;DHT22;16702;50.898;4.662;2022-08-01T05:39:47;21.90;99.90
29803;DHT22;16702;50.898;4.662;2022-08-01T05:42:17;21.80;99.90
29803;DHT22;16702;50.898;4.662;2022-08-01T05:44:47;21.90;99.90
29803;DHT22;16702;50.898;4.662;2022-08-01T05:47:18;22.00;99.90
29803;DHT22;16702;50.898;4.662;2022-08-01T05:49:48;22.00;99.90
29803;DHT22;16702;50.898;4.662;2022-08-01T05:52:21;21.90;99.90
29803;DHT22;16702;50.898;4.662;2022-08-01T05:54:52;21.80;99.90
29803;DHT22;16702;50.898;4.662;2022-08-01T05:57:22;21.90;99.90
29803;DHT22;16702;50.898;4.662;2022-08-01T05:59:53;22.00;99.90
29803;DHT22;16702;50.898;4.662;2022-08-01T06:02:23;22.00;99.90
29803;DHT22;16702;50.898;4.662;2022-08-01T06:04:55;21.80;99.90
29803;DHT22;16702;50.898;4.662;2022-08-01T06:07:28;21.90;99.90
29803;DHT22;16702;50.898;4.662;2022-08-01T06:09:58;22.00;99.90
29803;DHT22;16702;50.898;4.662;2022-08-01T06:12:29;21.90;99.90
29803;DHT22;16702;50.898;4.662;2022-08-01T06:15:02;22.00;99.90
29803;DHT22;16702;50.898;4.662;2022-08-01T06:17:33;22.00;99.90
29803;DHT22;16702;50.898;4.662;2022-08-01T06:20:04;22.10;99.90
29803;DHT22;16702;50.898;4.662;2022-08-01T06:22:37;22.00;99.90
29803;DHT22;16702;50.898;4.662;2022-08-01T06:25:09;22.00;99.90
29803;DHT22;16702;50.898;4.662;2022-08-01T06:27:39;22.10;99.90
29803;DHT22;16702;50.898;4.662;2022-08-01T06:30:10;22.00;99.90
29803;DHT22;16702;50.898;4.662;2022-08-01T06:32:41;22.10;99.90
29803;DHT22;16702;50.898;4.662;2022-08-01T06:35:11;22.10;99.90
29803;DHT22;16702;50.898;4.662;2022-08-01T06:37:44;21.90;99.90
29803;DHT22;16702;50.898;4.662;2022-08-01T06:40:18;22.00;99.90
29803;DHT22;16702;50.898;4.662;2022-08-01T06:42:49;22.10;99.90
29803;DHT22;16702;50.898;4.662;2022-08-01T06:45:19;22.20;99.90
29803;DHT22;16702;50.898;4.662;2022-08-01T06:47:52;22.20;99.90
29803;DHT22;16702;50.898;4.662;2022-08-01T06:50:25;22.10;99.90
29803;DHT22;16702;50.898;4.662;2022-08-01T06:52:58;22.10;99.90
29803;DHT22;16702;50.898;4.662;2022-08-01T06:55:28;22.10;99.90
29803;DHT22;16702;50.898;4.662;2022-08-01T06:57:59;22.20;99.90
29803;DHT22;16702;50.898;4.662;2022-08-01T07:00:29;22.30;99.90
29803;DHT22;16702;50.898;4.662;2022-08-01T07:03:00;22.30;99.90
29803;DHT22;16702;50.898;4.662;2022-08-01T07:05:30;22.30;99.90
29803;DHT22;16702;50.898;4.662;2022-08-01T07:08:04;22.30;99.90
29803;DHT22;16702;50.898;4.662;2022-08-01T07:10:34;22.30;99.90
29803;DHT22;16702;50.898;4.662;2022-08-01T07:13:05;22.30;99.90
29803;DHT22;16702;50.898;4.662;2022-08-01T07:15:35;22.40;99.90
29803;DHT22;16702;50.898;4.662;2022-08-01T07:18:06;22.40;99.90
29803;DHT22;16702;50.898;4.662;2022-08-01T07:20:40;22.50;99.90
29803;DHT22;16702;50.898;4.662;2022-08-01T07:23:21;22.60;99.90
29803;DHT22;16702;50.898;4.662;2022-08-01T07:26:03;22.60;99.90
29803;DHT22;16702;50.898;4.662;2022-08-01T07:28:34;22.40;99.90
29803;DHT22;16702;50.898;4.662;2022-08-01T07:31:10;22.40;99.90
29803;DHT22;16702;50.898;4.662;2022-08-01T07:33:40;22.30;99.90
29803;DHT22;16702;50.898;4.662;2022-08-01T07:36:15;22.40;99.90
29803;DHT22;16702;50.898;4.662;2022-08-01T07:38:48;22.30;99.90
29803;DHT22;16702;50.898;4.662;2022-08-01T07:41:18;22.30;99.90
29803;DHT22;16702;50.898;4.662;2022-08-01T07:44:09;22.40;99.90
29803;DHT22;16702;50.898;4.662;2022-08-01T07:46:39;22.50;99.90
29803;DHT22;16702;50.898;4.662;2022-08-01T07:49:09;22.50;99.90
29803;DHT22;16702;50.898;4.662;2022-08-01T07:51:40;22.60;99.90
29803;DHT22;16702;50.898;4.662;2022-08-01T07:54:35;22.60;99.90
29803;DHT22;16702;50.898;4.662;2022-08-01T07:57:05;22.60;99.90
29803;DHT22;16702;50.898;4.662;2022-08-01T07:59:35;22.60;99.90
29803;DHT22;16702;50.898;4.662;2022-08-01T08:02:06;22.70;99.90
29803;DHT22;16702;50.898;4.662;2022-08-01T08:04:38;22.80;99.90
29803;DHT22;16702;50.898;4.662;2022-08-01T08:07:14;22.80;99.90
29803;DHT22;16702;50.898;4.662;2022-08-01T08:09:48;22.90;99.90
29803;DHT22;16702;50.898;4.662;2022-08-01T08:12:18;22.90;99.90
29803;DHT22;16702;50.898;4.662;2022-08-01T08:14:55;22.90;99.90
29803;DHT22;16702;50.898;4.662;2022-08-01T08:17:27;23.00;99.90
29803;DHT22;16702;50.898;4.662;2022-08-01T08:20:08;23.00;99.90
29803;DHT22;16702;50.898;4.662;2022-08-01T08:22:39;23.00;99.90
29803;DHT22;16702;50.898;4.662;2022-08-01T08:25:11;22.90;99.90
29803;DHT22;16702;50.898;4.662;2022-08-01T08:27:42;22.90;99.90
29803;DHT22;16702;50.898;4.662;2022-08-01T08:30:14;23.00;99.90
29803;DHT22;16702;50.898;4.662;2022-08-01T08:32:47;23.00;99.90
29803;DHT22;16702;50.898;4.662;2022-08-01T08:35:18;23.00;99.90
29803;DHT22;16702;50.898;4.662;2022-08-01T08:38:12;23.10;99.90
29803;DHT22;16702;50.898;4.662;2022-08-01T08:40:45;23.10;99.90
29803;DHT22;16702;50.898;4.662;2022-08-01T08:43:16;23.10;99.90
29803;DHT22;16702;50.898;4.662;2022-08-01T08:45:46;23.20;99.90
29803;DHT22;16702;50.898;4.662;2022-08-01T08:48:26;23.20;99.90
29803;DHT22;16702;50.898;4.662;2022-08-01T08:50:58;23.30;99.90
29803;DHT22;16702;50.898;4.662;2022-08-01T08:53:31;23.30;99.90
29803;DHT22;16702;50.898;4.662;2022-08-01T08:56:06;23.30;99.90
29803;DHT22;16702;50.898;4.662;2022-08-01T08:58:41;23.40;99.90
29803;DHT22;16702;50.898;4.662;2022-08-01T09:01:14;23.20;99.90
29803;DHT22;16702;50.898;4.662;2022-08-01T09:03:48;23.20;99.90
29803;DHT22;16702;50.898;4.662;2022-08-01T09:06:19;23.20;99.90
29803;DHT22;16702;50.898;4.662;2022-08-01T09:08:50;23.30;99.90
29803;DHT22;16702;50.898;4.662;2022-08-01T09:11:23;23.20;99.90
29803;DHT22;16702;50.898;4.662;2022-08-01T09:14:08;23.20;99.90
29803;DHT22;16702;50.898;4.662;2022-08-01T09:16:43;23.30;99.90
29803;DHT22;16702;50.898;4.662;2022-08-01T09:19:17;23.20;99.90
29803;DHT22;16702;50.898;4.662;2022-08-01T09:22:09;23.30;99.90
29803;DHT22;16702;50.898;4.662;2022-08-01T09:24:40;23.40;99.90
29803;DHT22;16702;50.898;4.662;2022-08-01T09:27:22;23.50;99.90
29803;DHT22;16702;50.898;4.662;2022-08-01T09:29:53;23.60;99.90
29803;DHT22;16702;50.898;4.662;2022-08-01T09:32:29;23.50;99.90
29803;DHT22;16702;50.898;4.662;2022-08-01T09:35:23;23.60;99.90
29803;DHT22;16702;50.898;4.662;2022-08-01T09:38:13;23.70;99.90
29803;DHT22;16702;50.898;4.662;2022-08-01T09:40:45;23.50;99.90
29803;DHT22;16702;50.898;4.662;2022-08-01T09:43:20;23.60;99.90
29803;DHT22;16702;50.898;4.662;2022-08-01T09:45:53;23.70;99.90
29803;DHT22;16702;50.898;4.662;2022-08-01T09:48:25;23.60;99.90
29803;DHT22;16702;50.898;4.662;2022-08-01T09:50:57;23.60;99.90
29803;DHT22;16702;50.898;4.662;2022-08-01T09:53:45;23.70;99.90
29803;DHT22;16702;50.898;4.662;2022-08-01T09:56:20;23.90;99.90
29803;DHT22;16702;50.898;4.662;2022-08-01T09:58:55;24.10;99.90
29803;DHT22;16702;50.898;4.662;2022-08-01T10:01:41;24.20;99.90
29803;DHT22;16702;50.898;4.662;2022-08-01T10:04:13;24.30;99.90
29803;DHT22;16702;50.898;4.662;2022-08-01T10:06:45;24.40;99.90
29803;DHT22;16702;50.898;4.662;2022-08-01T10:09:28;24.60;99.90
29803;DHT22;16702;50.898;4.662;2022-08-01T10:12:07;24.50;99.90
29803;DHT22;16702;50.898;4.662;2022-08-01T10:14:46;24.40;99.90
29803;DHT22;16702;50.898;4.662;2022-08-01T10:17:19;24.60;99.90
29803;DHT22;16702;50.898;4.662;2022-08-01T10:20:10;24.50;99.90
29803;DHT22;16702;50.898;4.662;2022-08-01T10:22:59;24.50;99.90
29803;DHT22;16702;50.898;4.662;2022-08-01T10:25:36;24.40;99.90
29803;DHT22;16702;50.898;4.662;2022-08-01T10:28:15;24.40;99.90
29803;DHT22;16702;50.898;4.662;2022-08-01T10:30:52;24.50;99.90
29803;DHT22;16702;50.898;4.662;2022-08-01T10:33:24;24.80;99.90
29803;DHT22;16702;50.898;4.662;2022-08-01T10:36:18;24.70;99.90
29803;DHT22;16702;50.898;4.662;2022-08-01T10:38:53;25.00;99.90
29803;DHT22;16702;50.898;4.662;2022-08-01T10:41:26;24.90;99.90
29803;DHT22;16702;50.898;4.662;2022-08-01T10:43:57;24.90;99.90
29803;DHT22;16702;50.898;4.662;2022-08-01T10:46:34;25.00;99.90
29803;DHT22;16702;50.898;4.662;2022-08-01T10:49:13;25.10;99.90
29803;DHT22;16702;50.898;4.662;2022-08-01T10:51:46;25.20;99.90
29803;DHT22;16702;50.898;4.662;2022-08-01T10:54:24;25.10;99.90
29803;DHT22;16702;50.898;4.662;2022-08-01T10:56:59;25.20;99.90
29803;DHT22;16702;50.898;4.662;2022-08-01T10:59:33;25.10;99.90
29803;DHT22;16702;50.898;4.662;2022-08-01T11:02:31;25.20;99.90
29803;DHT22;16702;50.898;4.662;2022-08-01T11:05:18;25.10;99.90
29803;DHT22;16702;50.898;4.662;2022-08-01T11:07:52;25.20;99.90
29803;DHT22;16702;50.898;4.662;2022-08-01T11:10:24;25.30;99.90
29803;DHT22;16702;50.898;4.662;2022-08-01T11:12:55;25.40;99.90
29803;DHT22;16702;50.898;4.662;2022-08-01T11:15:30;25.30;99.90
29803;DHT22;16702;50.898;4.662;2022-08-01T11:18:29;25.40;99.90
29803;DHT22;16702;50.898;4.662;2022-08-01T11:21:04;25.60;99.90
29803;DHT22;16702;50.898;4.662;2022-08-01T11:23:57;25.50;99.90
29803;DHT22;16702;50.898;4.662;2022-08-01T11:26:28;25.50;99.90
29803;DHT22;16702;50.898;4.662;2022-08-01T11:29:18;25.50;99.90
29803;DHT22;16702;50.898;4.662;2022-08-01T11:31:49;25.50;99.90
29803;DHT22;16702;50.898;4.662;2022-08-01T11:34:52;25.70;99.90
29803;DHT22;16702;50.898;4.662;2022-08-01T11:37:23;25.80;99.90
29803;DHT22;16702;50.898;4.662;2022-08-01T11:40:15;25.90;99.90
29803;DHT22;16702;50.898;4.662;2022-08-01T11:42:50;25.90;99.90
29803;DHT22;16702;50.898;4.662;2022-08-01T11:45:21;25.90;99.90
29803;DHT22;16702;50.898;4.662;2022-08-01T11:47:52;25.90;99.90
29803;DHT22;16702;50.898;4.662;2022-08-01T11:50:36;26.10;99.90
29803;DHT22;16702;50.898;4.662;2022-08-01T11:53:09;25.90;99.90
29803;DHT22;16702;50.898;4.662;2022-08-01T11:55:45;26.00;99.90
29803;DHT22;16702;50.898;4.662;2022-08-01T11:58:22;26.10;99.90
29803;DHT22;16702;50.898;4.662;2022-08-01T12:00:58;26.20;99.90
29803;DHT22;16702;50.898;4.662;2022-08-01T12:03:29;26.20;99.90
29803;DHT22;16702;50.898;4.662;2022-08-01T12:06:03;26.30;99.90
29803;DHT22;16702;50.898;4.662;2022-08-01T12:08:34;26.60;99.90
29803;DHT22;16702;50.898;4.662;2022-08-01T12:11:05;26.60;99.90
29803;DHT22;16702;50.898;4.662;2022-08-01T12:13:40;26.70;99.90
29803;DHT22;16702;50.898;4.662;2022-08-01T12:16:12;26.80;99.90
29803;DHT22;16702;50.898;4.662;2022-08-01T12:18:45;26.80;99.40
29803;DHT22;16702;50.898;4.662;2022-08-01T12:21:19;27.00;99.80
29803;DHT22;16702;50.898;4.662;2022-08-01T12:24:00;27.00;99.80
29803;DHT22;16702;50.898;4.662;2022-08-01T12:26:40;26.80;99.10
29803;DHT22;16702;50.898;4.662;2022-08-01T12:29:31;27.00;99.30
29803;DHT22;16702;50.898;4.662;2022-08-01T12:32:01;26.90;98.50
29803;DHT22;16702;50.898;4.662;2022-08-01T12:34:32;27.00;98.40
29803;DHT22;16702;50.898;4.662;2022-08-01T12:37:07;26.90;98.90
29803;DHT22;16702;50.898;4.662;2022-08-01T12:39:38;27.10;98.30
29803;DHT22;16702;50.898;4.662;2022-08-01T12:42:09;27.10;98.00
29803;DHT22;16702;50.898;4.662;2022-08-01T12:44:40;27.00;97.40
29803;DHT22;16702;50.898;4.662;2022-08-01T12:47:12;27.20;97.80
29803;DHT22;16702;50.898;4.662;2022-08-01T12:49:44;27.10;98.50
29803;DHT22;16702;50.898;4.662;2022-08-01T12:52:17;27.20;98.00
29803;DHT22;16702;50.898;4.662;2022-08-01T12:55:00;27.20;97.40
29803;DHT22;16702;50.898;4.662;2022-08-01T12:57:36;27.10;97.20
29803;DHT22;16702;50.898;4.662;2022-08-01T13:00:13;27.30;97.10
29803;DHT22;16702;50.898;4.662;2022-08-01T13:02:45;27.40;97.40
29803;DHT22;16702;50.898;4.662;2022-08-01T13:05:16;27.50;95.90
29803;DHT22;16702;50.898;4.662;2022-08-01T13:07:50;27.50;96.40
29803;DHT22;16702;50.898;4.662;2022-08-01T13:10:26;27.50;96.50
29803;DHT22;16702;50.898;4.662;2022-08-01T13:12:57;27.40;95.40
29803;DHT22;16702;50.898;4.662;2022-08-01T13:15:30;27.20;94.90
29803;DHT22;16702;50.898;4.662;2022-08-01T13:18:23;27.50;94.50
29803;DHT22;16702;50.898;4.662;2022-08-01T13:21:10;27.80;94.60
29803;DHT22;16702;50.898;4.662;2022-08-01T13:24:01;27.90;93.70
29803;DHT22;16702;50.898;4.662;2022-08-01T13:26:40;28.00;93.80
29803;DHT22;16702;50.898;4.662;2022-08-01T13:29:11;28.00;93.40
29803;DHT22;16702;50.898;4.662;2022-08-01T13:31:43;28.10;91.80
29803;DHT22;16702;50.898;4.662;2022-08-01T13:34:15;27.90;91.80
29803;DHT22;16702;50.898;4.662;2022-08-01T13:36:46;28.00;92.10
29803;DHT22;16702;50.898;4.662;2022-08-01T13:39:19;28.00;92.40
29803;DHT22;16702;50.898;4.662;2022-08-01T13:42:03;28.10;92.30
29803;DHT22;16702;50.898;4.662;2022-08-01T13:44:33;28.40;92.60
29803;DHT22;16702;50.898;4.662;2022-08-01T13:47:05;28.50;92.50
29803;DHT22;16702;50.898;4.662;2022-08-01T13:49:43;28.50;92.00
29803;DHT22;16702;50.898;4.662;2022-08-01T13:52:13;28.30;91.60
29803;DHT22;16702;50.898;4.662;2022-08-01T13:54:46;28.50;91.40
29803;DHT22;16702;50.898;4.662;2022-08-01T13:57:16;28.70;91.40
29803;DHT22;16702;50.898;4.662;2022-08-01T13:59:48;28.60;90.40
29803;DHT22;16702;50.898;4.662;2022-08-01T14:02:19;28.30;90.60
29803;DHT22;16702;50.898;4.662;2022-08-01T14:04:50;28.30;90.70
29803;DHT22;16702;50.898;4.662;2022-08-01T14:07:21;28.60;90.90
29803;DHT22;16702;50.898;4.662;2022-08-01T14:09:57;28.60;89.90
29803;DHT22;16702;50.898;4.662;2022-08-01T14:12:46;28.70;87.00
29803;DHT22;16702;50.898;4.662;2022-08-01T14:15:17;28.50;88.70
29803;DHT22;16702;50.898;4.662;2022-08-01T14:18:06;28.20;85.50
29803;DHT22;16702;50.898;4.662;2022-08-01T14:20:38;28.20;88.20
29803;DHT22;16702;50.898;4.662;2022-08-01T14:23:11;28.20;87.50
29803;DHT22;16702;50.898;4.662;2022-08-01T14:25:44;28.10;87.50
29803;DHT22;16702;50.898;4.662;2022-08-01T14:28:33;28.20;88.00
29803;DHT22;16702;50.898;4.662;2022-08-01T14:31:03;28.00;88.50
29803;DHT22;16702;50.898;4.662;2022-08-01T14:33:35;28.30;90.30
29803;DHT22;16702;50.898;4.662;2022-08-01T14:36:06;28.40;89.80
29803;DHT22;16702;50.898;4.662;2022-08-01T14:38:57;28.50;89.80
29803;DHT22;16702;50.898;4.662;2022-08-01T14:41:31;28.30;88.10
29803;DHT22;16702;50.898;4.662;2022-08-01T14:44:01;28.60;88.50
29803;DHT22;16702;50.898;4.662;2022-08-01T14:46:32;28.70;88.20
29803;DHT22;16702;50.898;4.662;2022-08-01T14:49:02;28.80;87.80
29803;DHT22;16702;50.898;4.662;2022-08-01T14:51:33;28.90;86.60
29803;DHT22;16702;50.898;4.662;2022-08-01T14:54:05;28.70;87.20
29803;DHT22;16702;50.898;4.662;2022-08-01T14:56:38;28.70;88.30
29803;DHT22;16702;50.898;4.662;2022-08-01T14:59:08;28.70;85.70
29803;DHT22;16702;50.898;4.662;2022-08-01T15:01:48;28.60;87.10
29803;DHT22;16702;50.898;4.662;2022-08-01T15:04:18;28.80;87.90
29803;DHT22;16702;50.898;4.662;2022-08-01T15:06:49;29.00;86.90
29803;DHT22;16702;50.898;4.662;2022-08-01T15:09:19;28.80;85.60
29803;DHT22;16702;50.898;4.662;2022-08-01T15:11:53;29.20;87.40
29803;DHT22;16702;50.898;4.662;2022-08-01T15:14:23;29.30;85.90
29803;DHT22;16702;50.898;4.662;2022-08-01T15:17:06;29.30;84.50
29803;DHT22;16702;50.898;4.662;2022-08-01T15:19:37;29.00;85.40
29803;DHT22;16702;50.898;4.662;2022-08-01T15:22:09;29.20;85.80
29803;DHT22;16702;50.898;4.662;2022-08-01T15:24:42;29.20;84.80
29803;DHT22;16702;50.898;4.662;2022-08-01T15:27:15;29.20;83.50
29803;DHT22;16702;50.898;4.662;2022-08-01T15:29:46;29.40;84.50
29803;DHT22;16702;50.898;4.662;2022-08-01T15:32:17;29.20;83.30
29803;DHT22;16702;50.898;4.662;2022-08-01T15:34:47;29.60;84.10
29803;DHT22;16702;50.898;4.662;2022-08-01T15:37:19;29.50;84.10
29803;DHT22;16702;50.898;4.662;2022-08-01T15:39:51;29.50;83.70
29803;DHT22;16702;50.898;4.662;2022-08-01T15:42:25;29.60;83.00
29803;DHT22;16702;50.898;4.662;2022-08-01T15:44:58;29.20;83.40
29803;DHT22;16702;50.898;4.662;2022-08-01T15:47:28;29.40;83.00
29803;DHT22;16702;50.898;4.662;2022-08-01T15:50:00;29.50;83.30
29803;DHT22;16702;50.898;4.662;2022-08-01T15:52:31;29.80;84.00
29803;DHT22;16702;50.898;4.662;2022-08-01T15:55:02;29.80;82.60
29803;DHT22;16702;50.898;4.662;2022-08-01T15:57:35;29.90;84.90
29803;DHT22;16702;50.898;4.662;2022-08-01T16:00:07;29.90;81.90
29803;DHT22;16702;50.898;4.662;2022-08-01T16:02:38;29.70;82.20
29803;DHT22;16702;50.898;4.662;2022-08-01T16:05:09;29.70;82.30
29803;DHT22;16702;50.898;4.662;2022-08-01T16:07:47;29.70;81.90
29803;DHT22;16702;50.898;4.662;2022-08-01T16:10:27;29.50;81.00
29803;DHT22;16702;50.898;4.662;2022-08-01T16:13:00;29.80;84.20
29803;DHT22;16702;50.898;4.662;2022-08-01T16:15:37;29.90;82.20